createdAt,value
2018-02-13T00:02:02.332Z,86.71
2018-02-13T00:04:30.036Z,87.17
2018-02-13T00:06:57.783Z,87.28
2018-02-13T00:09:25.489Z,86.94
2018-02-13T00:11:53.211Z,86.53
2018-02-13T00:14:20.777Z,86.44
2018-02-13T00:16:48.328Z,86.58
2018-02-13T00:19:15.941Z,87.17
2018-02-13T00:21:43.508Z,87.20
2018-02-13T00:24:11.073Z,87.53
2018-02-13T00:26:38.716Z,87.71
2018-02-13T00:29:07.638Z,87.66
2018-02-13T00:31:35.460Z,87.27
2018-02-13T00:34:03.068Z,87.26
2018-02-13T00:36:30.634Z,87.38
2018-02-13T00:38:58.504Z,87.46
2018-02-13T00:41:26.228Z,87.54
2018-02-13T00:43:53.997Z,87.67
2018-02-13T00:46:21.562Z,87.95
2018-02-13T00:48:49.121Z,88.06
2018-02-13T00:51:16.703Z,88.16
2018-02-13T00:53:44.284Z,88.50
2018-02-13T00:56:11.858Z,88.71
2018-02-13T00:58:39.421Z,88.60
2018-02-13T01:01:07.050Z,88.64
2018-02-13T01:03:34.617Z,88.65
2018-02-13T01:06:02.409Z,88.59
2018-02-13T01:08:29.977Z,88.67
2018-02-13T01:10:57.540Z,88.80
2018-02-13T01:13:25.114Z,88.93
2018-02-13T01:15:52.674Z,88.46
2018-02-13T01:18:20.309Z,88.44
2018-02-13T01:20:47.870Z,88.82
2018-02-13T01:23:15.630Z,88.82
2018-02-13T01:25:43.454Z,88.53
2018-02-13T01:28:11.171Z,88.62
2018-02-13T01:30:38.741Z,88.66
2018-02-13T01:33:06.301Z,88.75
2018-02-13T01:35:34.107Z,88.58
2018-02-13T01:38:01.685Z,88.57
2018-02-13T01:40:29.440Z,88.43
2018-02-13T01:42:57.178Z,88.70
2018-02-13T01:45:24.747Z,88.84
2018-02-13T01:47:52.321Z,89.27
2018-02-13T01:50:25.918Z,89.42
2018-02-13T01:52:53.772Z,88.98
2018-02-13T01:55:21.333Z,88.77
2018-02-13T01:57:49.076Z,88.45
2018-02-13T02:00:16.649Z,88.89
2018-02-13T02:02:44.445Z,88.73
2018-02-13T02:05:12.167Z,88.78
2018-02-13T02:07:39.725Z,88.86
2018-02-13T02:10:07.599Z,88.91
2018-02-13T02:12:35.207Z,88.86
2018-02-13T02:15:02.773Z,88.93
2018-02-13T02:17:30.379Z,88.97
2018-02-13T02:19:57.968Z,89.11
2018-02-13T02:22:25.561Z,89.14
2018-02-13T02:24:53.196Z,89.28
2018-02-13T02:27:20.926Z,89.54
2018-02-13T02:29:48.640Z,89.54
2018-02-13T02:32:16.190Z,89.63
2018-02-13T02:34:43.774Z,89.94
2018-02-13T02:37:11.595Z,89.68
2018-02-13T02:39:39.297Z,89.48
2018-02-13T02:42:06.865Z,89.25
2018-02-13T02:44:34.476Z,89.05
2018-02-13T02:47:02.038Z,89.00
2018-02-13T02:49:29.593Z,88.93
2018-02-13T02:51:57.401Z,88.80
2018-02-13T02:54:25.121Z,88.46
2018-02-13T02:56:52.681Z,88.38
2018-02-13T02:59:20.236Z,88.12
2018-02-13T03:01:47.959Z,87.97
2018-02-13T03:04:15.525Z,87.92
2018-02-13T03:06:43.100Z,87.70
2018-02-13T03:09:10.708Z,87.50
2018-02-13T03:11:38.266Z,87.52
2018-02-13T03:14:05.841Z,87.54
2018-02-13T03:16:33.580Z,87.58
2018-02-13T03:19:01.193Z,87.70
2018-02-13T03:21:28.916Z,87.64
2018-02-13T03:23:56.493Z,87.50
2018-02-13T03:26:24.065Z,87.47
2018-02-13T03:28:51.626Z,87.25
2018-02-13T03:31:19.389Z,87.54
2018-02-13T03:33:46.953Z,87.48
2018-02-13T03:36:14.615Z,87.53
2018-02-13T03:38:43.249Z,87.92
2018-02-13T03:41:10.814Z,88.18
2018-02-13T03:43:38.580Z,88.03
2018-02-13T03:46:06.137Z,87.72
2018-02-13T03:48:33.701Z,87.57
2018-02-13T03:51:01.392Z,87.51
2018-02-13T03:53:29.114Z,87.86
2018-02-13T03:55:56.665Z,88.19
2018-02-13T03:58:24.380Z,88.50
2018-02-13T04:00:51.960Z,88.56
2018-02-13T04:03:19.519Z,88.44
2018-02-13T04:05:47.134Z,88.62
2018-02-13T04:08:14.859Z,88.67
2018-02-13T04:10:42.413Z,88.60
2018-02-13T04:13:09.983Z,88.20
2018-02-13T04:15:37.815Z,87.84
2018-02-13T04:18:05.432Z,87.77
2018-02-13T04:20:32.990Z,87.85
2018-02-13T04:23:00.777Z,88.09
2018-02-13T04:25:28.588Z,88.33
2018-02-13T04:27:56.145Z,88.53
2018-02-13T04:30:23.761Z,88.61
2018-02-13T04:32:51.329Z,88.78
2018-02-13T04:35:19.135Z,88.88
2018-02-13T04:37:46.702Z,88.95
2018-02-13T04:40:14.378Z,88.96
2018-02-13T04:42:41.922Z,88.88
2018-02-13T04:45:09.481Z,88.95
2018-02-13T04:47:37.106Z,89.12
2018-02-13T04:50:04.680Z,88.72
2018-02-13T04:52:32.482Z,88.28
2018-02-13T04:55:00.053Z,88.04
2018-02-13T04:57:27.618Z,88.06
2018-02-13T04:59:55.182Z,88.10
2018-02-13T05:02:22.762Z,88.19
2018-02-13T05:04:50.382Z,88.19
2018-02-13T05:07:17.938Z,88.27
2018-02-13T05:09:45.608Z,88.92
2018-02-13T05:12:13.184Z,88.97
2018-02-13T05:14:40.914Z,88.74
2018-02-13T05:17:08.482Z,88.74
2018-02-13T05:19:36.070Z,89.03
2018-02-13T05:22:03.817Z,89.52
2018-02-13T05:24:31.382Z,89.83
2018-02-13T05:26:59.096Z,90.00
2018-02-13T05:29:26.811Z,89.76
2018-02-13T05:31:54.460Z,89.39
2018-02-13T05:34:22.286Z,89.11
2018-02-13T05:36:49.845Z,88.99
2018-02-13T05:39:17.724Z,88.98
2018-02-13T05:41:45.444Z,89.09
2018-02-13T05:44:13.259Z,88.80
2018-02-13T05:46:40.845Z,88.36
2018-02-13T05:49:08.477Z,88.03
2018-02-13T05:51:36.181Z,87.95
2018-02-13T05:54:03.760Z,87.29
2018-02-13T05:56:31.551Z,86.91
2018-02-13T05:58:59.117Z,86.50
2018-02-13T06:01:26.845Z,86.47
2018-02-13T06:03:54.420Z,86.62
2018-02-13T06:06:22.221Z,86.70
2018-02-13T06:08:49.777Z,87.19
2018-02-13T06:11:17.342Z,87.29
2018-02-13T06:13:44.897Z,86.52
2018-02-13T06:16:12.465Z,86.11
2018-02-13T06:18:40.068Z,85.61
2018-02-13T06:21:07.690Z,85.06
2018-02-13T06:23:35.246Z,84.75
2018-02-13T06:26:03.064Z,84.37
2018-02-13T06:28:30.673Z,84.45
2018-02-13T06:30:58.400Z,83.48
2018-02-13T06:33:26.118Z,82.86
2018-02-13T06:35:53.837Z,82.62
2018-02-13T06:38:21.454Z,82.44
2018-02-13T06:40:49.081Z,82.18
2018-02-13T06:43:16.891Z,80.75
2018-02-13T06:45:44.500Z,79.08
2018-02-13T06:48:12.226Z,73.39
2018-02-13T06:50:39.924Z,70.02
2018-02-13T06:53:07.668Z,64.66
2018-02-13T06:55:35.482Z,59.64
2018-02-13T06:58:03.091Z,55.56
2018-02-13T07:00:30.657Z,54.09
2018-02-13T07:02:58.438Z,53.54
2018-02-13T07:05:26.206Z,51.54
2018-02-13T07:07:53.775Z,50.71
2018-02-13T07:10:21.348Z,50.04
2018-02-13T07:12:48.999Z,48.26
2018-02-13T07:15:16.562Z,46.95
2018-02-13T07:17:44.343Z,45.23
2018-02-13T07:20:12.142Z,44.31
2018-02-13T07:22:39.702Z,42.99
2018-02-13T07:25:07.272Z,41.63
2018-02-13T07:27:34.893Z,41.22
2018-02-13T07:30:02.612Z,40.53
2018-02-13T07:32:30.195Z,40.57
2018-02-13T07:34:57.777Z,41.31
2018-02-13T07:37:25.362Z,40.52
2018-02-13T07:39:53.171Z,41.15
2018-02-13T07:42:20.923Z,41.85
2018-02-13T07:44:48.482Z,42.34
2018-02-13T07:47:17.227Z,44.39
2018-02-13T07:49:45.583Z,43.04
2018-02-13T07:52:13.193Z,40.75
2018-02-13T07:54:40.904Z,38.54
2018-02-13T07:57:08.838Z,36.90
2018-02-13T07:59:36.447Z,35.77
2018-02-13T08:02:04.188Z,35.36
2018-02-13T08:04:31.815Z,34.44
2018-02-13T08:06:59.815Z,33.68
2018-02-13T08:09:27.423Z,34.19
2018-02-13T08:11:55.248Z,34.63
2018-02-13T08:14:22.805Z,34.03
2018-02-13T08:16:50.584Z,33.34
2018-02-13T08:19:18.193Z,32.25
2018-02-13T08:21:46.020Z,32.15
2018-02-13T08:24:13.838Z,32.80
2018-02-13T08:26:41.656Z,33.14
2018-02-13T08:29:09.475Z,32.83
2018-02-13T08:31:37.087Z,32.20
2018-02-13T08:34:04.658Z,31.15
2018-02-13T08:36:32.309Z,30.75
2018-02-13T08:39:00.147Z,31.18
2018-02-13T08:41:27.811Z,31.11
2018-02-13T08:43:55.373Z,31.23
2018-02-13T08:46:22.981Z,31.47
2018-02-13T08:48:50.654Z,32.85
2018-02-13T08:51:18.437Z,33.90
2018-02-13T08:53:45.997Z,35.70
2018-02-13T08:56:13.609Z,35.83
2018-02-13T08:58:41.394Z,35.67
2018-02-13T09:01:08.953Z,35.46
2018-02-13T09:03:36.522Z,35.90
2018-02-13T09:06:04.095Z,35.16
2018-02-13T09:08:31.862Z,34.65
2018-02-13T09:10:59.482Z,34.59
2018-02-13T09:13:27.155Z,35.57
2018-02-13T09:15:54.791Z,36.59
2018-02-13T09:18:22.591Z,37.44
2018-02-13T09:20:50.502Z,36.60
2018-02-13T09:23:18.223Z,37.21
2018-02-13T09:25:46.060Z,38.94
2018-02-13T09:28:13.685Z,41.73
2018-02-13T09:30:41.329Z,42.11
2018-02-13T09:33:08.913Z,43.20
2018-02-13T09:35:36.719Z,40.84
2018-02-13T09:38:04.290Z,38.41
2018-02-13T09:40:31.847Z,39.12
2018-02-13T09:42:59.414Z,39.05
2018-02-13T09:45:27.033Z,38.37
2018-02-13T09:47:54.705Z,38.13
2018-02-13T09:50:22.281Z,38.62
2018-02-13T09:52:49.838Z,39.49
2018-02-13T09:55:17.689Z,38.73
2018-02-13T09:57:45.324Z,39.54
2018-02-13T10:00:12.961Z,39.47
2018-02-13T10:02:40.680Z,40.06
2018-02-13T10:05:08.319Z,39.54
2018-02-13T10:07:36.081Z,40.73
2018-02-13T10:10:03.938Z,41.18
2018-02-13T10:12:31.691Z,40.82
2018-02-13T10:14:59.554Z,42.45
2018-02-13T10:17:27.173Z,42.58
2018-02-13T10:19:54.782Z,41.89
2018-02-13T10:22:22.661Z,42.18
2018-02-13T10:24:50.481Z,40.82
2018-02-13T10:27:18.045Z,41.72
2018-02-13T10:29:45.817Z,41.47
2018-02-13T10:32:13.381Z,39.67
2018-02-13T10:34:41.655Z,39.30
2018-02-13T10:37:09.473Z,40.09
2018-02-13T10:39:37.173Z,40.30
2018-02-13T10:42:04.800Z,41.02
2018-02-13T10:44:32.365Z,42.70
2018-02-13T10:46:59.939Z,41.47
2018-02-13T10:49:27.501Z,43.25
2018-02-13T10:51:55.126Z,44.56
2018-02-13T10:54:22.791Z,47.58
2018-02-13T10:56:50.334Z,45.65
2018-02-13T10:59:17.932Z,46.55
2018-02-13T11:01:45.545Z,44.38
2018-02-13T11:04:13.113Z,45.28
2018-02-13T11:06:40.669Z,45.56
2018-02-13T11:09:08.298Z,42.56
2018-02-13T11:11:36.028Z,43.37
2018-02-13T11:14:03.642Z,44.90
2018-02-13T11:16:31.192Z,45.18
2018-02-13T11:18:58.775Z,43.77
2018-02-13T11:21:26.556Z,45.63
2018-02-13T11:23:54.117Z,45.70
2018-02-13T11:26:21.933Z,46.26
2018-02-13T11:28:49.506Z,46.16
2018-02-13T11:31:17.269Z,45.86
2018-02-13T11:33:44.841Z,44.73
2018-02-13T11:36:12.603Z,43.65
2018-02-13T11:38:40.247Z,44.98
2018-02-13T11:41:07.920Z,46.29
2018-02-13T11:43:35.508Z,45.40
2018-02-13T11:46:03.086Z,45.11
2018-02-13T11:48:30.673Z,43.33
2018-02-13T11:50:58.430Z,42.66
2018-02-13T11:53:26.229Z,41.61
2018-02-13T11:55:53.838Z,42.34
2018-02-13T11:58:21.567Z,42.25
2018-02-13T12:00:49.384Z,41.79
2018-02-13T12:03:17.094Z,42.71
2018-02-13T12:05:44.649Z,42.24
2018-02-13T12:08:12.538Z,44.19
2018-02-13T12:10:40.132Z,42.75
2018-02-13T12:13:07.758Z,43.34
2018-02-13T12:15:35.321Z,42.45
2018-02-13T12:18:02.901Z,40.79
2018-02-13T12:20:30.546Z,41.88
2018-02-13T12:22:58.111Z,39.81
2018-02-13T12:25:37.401Z,38.71
2018-02-13T12:28:05.318Z,38.20
2018-02-13T12:30:32.931Z,40.08
2018-02-13T12:33:00.498Z,39.59
2018-02-13T12:35:28.106Z,38.89
2018-02-13T12:37:55.995Z,41.85
2018-02-13T12:40:23.597Z,43.53
2018-02-13T12:42:51.201Z,42.46
2018-02-13T12:45:18.811Z,41.59
2018-02-13T12:47:46.530Z,41.09
2018-02-13T12:50:14.150Z,42.19
2018-02-13T12:52:41.725Z,43.98
2018-02-13T12:55:09.479Z,46.82
2018-02-13T12:57:37.062Z,48.50
2018-02-13T13:00:04.738Z,50.57
2018-02-13T13:02:32.300Z,50.85
2018-02-13T13:04:59.917Z,53.07
2018-02-13T13:07:27.489Z,52.93
2018-02-13T13:09:55.331Z,53.60
2018-02-13T13:12:22.985Z,53.18
2018-02-13T13:14:51.321Z,52.39
2018-02-13T13:17:19.095Z,52.27
2018-02-13T13:19:46.694Z,53.89
2018-02-13T13:22:14.263Z,54.69
2018-02-13T13:24:41.838Z,53.48
2018-02-13T13:27:09.390Z,55.35
2018-02-13T13:29:37.170Z,55.82
2018-02-13T13:32:04.893Z,54.58
2018-02-13T13:34:32.614Z,53.94
2018-02-13T13:37:00.334Z,54.06
2018-02-13T13:39:28.403Z,55.79
2018-02-13T13:41:56.079Z,54.60
2018-02-13T13:44:23.854Z,54.84
2018-02-13T13:46:51.457Z,54.94
2018-02-13T13:49:19.013Z,53.96
2018-02-13T13:51:46.754Z,54.19
2018-02-13T13:54:14.560Z,54.72
2018-02-13T13:56:42.281Z,55.94
2018-02-13T13:59:09.889Z,54.96
2018-02-13T14:01:37.714Z,53.02
2018-02-13T14:04:05.282Z,52.91
2018-02-13T14:06:32.884Z,53.44
2018-02-13T14:09:00.665Z,54.49
2018-02-13T14:11:28.325Z,53.49
2018-02-13T14:13:55.885Z,54.44
2018-02-13T14:16:23.514Z,55.27
2018-02-13T14:18:51.514Z,56.86
2018-02-13T14:21:19.259Z,56.31
2018-02-13T14:23:46.876Z,56.69
2018-02-13T14:26:14.419Z,56.50
2018-02-13T14:28:42.036Z,55.94
2018-02-13T14:31:09.763Z,55.31
2018-02-13T14:33:37.442Z,54.06
2018-02-13T14:36:05.159Z,55.76
2018-02-13T14:38:32.749Z,55.36
2018-02-13T14:41:00.395Z,56.36
2018-02-13T14:43:27.970Z,57.22
2018-02-13T14:45:55.543Z,57.76
2018-02-13T14:48:23.337Z,59.12
2018-02-13T14:50:50.912Z,60.10
2018-02-13T14:53:18.476Z,62.02
2018-02-13T14:55:46.045Z,62.07
2018-02-13T14:58:13.605Z,61.64
2018-02-13T15:00:41.848Z,62.82
2018-02-13T15:03:09.666Z,63.23
2018-02-13T15:05:37.486Z,63.27
2018-02-13T15:08:05.019Z,63.16
2018-02-13T15:10:32.709Z,63.92
2018-02-13T15:13:00.298Z,63.48
2018-02-13T15:15:29.683Z,64.23
2018-02-13T15:18:10.296Z,64.39
2018-02-13T15:20:37.918Z,64.70
2018-02-13T15:23:05.677Z,64.79
2018-02-13T15:25:33.245Z,64.46
2018-02-13T15:28:00.983Z,65.23
2018-02-13T15:30:28.608Z,65.52
2018-02-13T15:32:56.436Z,65.77
2018-02-13T15:35:23.998Z,65.55
2018-02-13T15:37:51.570Z,65.40
2018-02-13T15:40:19.275Z,65.33
2018-02-13T15:42:46.806Z,65.45
2018-02-13T15:45:14.627Z,65.80
2018-02-13T15:47:42.229Z,66.02
2018-02-13T15:50:09.796Z,65.88
2018-02-13T15:52:37.405Z,66.26
2018-02-13T15:55:04.970Z,66.27
2018-02-13T15:57:32.581Z,66.18
2018-02-13T16:00:00.214Z,66.62
2018-02-13T16:02:27.786Z,66.11
2018-02-13T16:04:55.673Z,66.75
2018-02-13T16:07:23.265Z,67.11
2018-02-13T16:09:50.825Z,66.25
2018-02-13T16:12:18.623Z,66.50
2018-02-13T16:14:46.246Z,66.33
2018-02-13T16:17:13.960Z,66.59
2018-02-13T16:19:41.526Z,66.54
2018-02-13T16:22:09.138Z,66.72
2018-02-13T16:24:36.737Z,67.01
2018-02-13T16:27:04.359Z,66.48
2018-02-13T16:29:31.938Z,66.63
2018-02-13T16:31:59.818Z,66.77
2018-02-13T16:34:27.586Z,66.85
2018-02-13T16:36:55.141Z,66.94
2018-02-13T16:39:22.902Z,66.74
2018-02-13T16:41:50.449Z,66.80
2018-02-13T16:44:18.014Z,67.32
2018-02-13T16:46:45.718Z,67.17
2018-02-13T16:49:13.466Z,66.93
2018-02-13T16:51:41.022Z,67.21
2018-02-13T16:54:08.725Z,67.32
2018-02-13T16:56:36.307Z,67.76
2018-02-13T16:59:03.871Z,67.87
2018-02-13T17:01:31.684Z,67.75
2018-02-13T17:03:59.261Z,68.24
2018-02-13T17:06:27.021Z,68.03
2018-02-13T17:08:54.738Z,68.12
2018-02-13T17:11:22.457Z,68.19
2018-02-13T17:13:50.333Z,68.03
2018-02-13T17:16:17.885Z,68.31
2018-02-13T17:18:45.442Z,68.04
2018-02-13T17:21:13.232Z,68.55
2018-02-13T17:23:40.845Z,68.34
2018-02-13T17:26:08.670Z,68.40
2018-02-13T17:28:36.230Z,68.45
2018-02-13T17:31:03.814Z,68.62
2018-02-13T17:33:31.487Z,68.13
2018-02-13T17:35:59.294Z,68.30
2018-02-13T17:38:26.968Z,68.19
2018-02-13T17:40:54.666Z,68.33
2018-02-13T17:43:22.330Z,68.42
2018-02-13T17:45:49.948Z,68.81
2018-02-13T17:48:17.514Z,68.40
2018-02-13T17:50:45.302Z,68.60
2018-02-13T17:53:13.122Z,68.39
2018-02-13T17:55:40.839Z,68.65
2018-02-13T17:58:08.441Z,68.41
2018-02-13T18:00:35.997Z,68.50
2018-02-13T18:03:03.560Z,69.02
2018-02-13T18:05:31.311Z,68.86
2018-02-13T18:07:59.029Z,68.47
2018-02-13T18:10:26.594Z,68.43
2018-02-13T18:12:54.256Z,68.79
2018-02-13T18:15:21.912Z,68.71
2018-02-13T18:17:49.622Z,68.80
2018-02-13T18:20:17.521Z,68.59
2018-02-13T18:22:45.338Z,68.99
2018-02-13T18:25:12.892Z,68.53
2018-02-13T18:27:40.470Z,68.86
2018-02-13T18:30:08.284Z,68.75
2018-02-13T18:32:35.889Z,68.58
2018-02-13T18:35:03.629Z,68.64
2018-02-13T18:37:31.195Z,69.02
2018-02-13T18:39:58.856Z,68.89
2018-02-13T18:42:26.421Z,69.81
2018-02-13T18:44:53.999Z,69.19
2018-02-13T18:47:21.561Z,69.56
2018-02-13T18:49:49.172Z,69.62
2018-02-13T18:54:44.472Z,69.86
2018-02-13T18:57:12.342Z,68.89
2018-02-13T18:59:40.111Z,69.24
2018-02-13T19:02:08.055Z,68.51
2018-02-13T19:04:35.852Z,68.01
2018-02-13T19:07:03.666Z,68.10
2018-02-13T19:09:31.225Z,67.65
2018-02-13T19:11:58.798Z,67.86
2018-02-13T19:14:26.619Z,67.79
2018-02-13T19:19:21.926Z,68.22
2018-02-13T19:21:49.646Z,67.86
2018-02-13T19:24:17.363Z,68.17
2018-02-13T19:26:44.991Z,67.16
2018-02-13T19:29:12.622Z,67.09
2018-02-13T19:31:40.418Z,67.10
2018-02-13T19:34:08.056Z,67.04
2018-02-13T19:36:35.743Z,67.04
2018-02-13T19:39:03.601Z,66.94
2018-02-13T19:41:31.197Z,67.12
2018-02-13T19:43:58.778Z,67.18
2018-02-13T19:46:26.393Z,66.92
2018-02-13T19:48:54.275Z,67.10
2018-02-13T19:51:21.859Z,67.49
2018-02-13T19:53:49.612Z,67.10
2018-02-13T19:56:17.197Z,67.03
2018-02-13T19:58:44.914Z,67.32
2018-02-13T20:01:12.630Z,67.16
2018-02-13T20:03:40.191Z,67.40
2018-02-13T20:06:07.817Z,67.36
2018-02-13T20:08:35.619Z,67.80
2018-02-13T20:11:03.545Z,67.26
2018-02-13T20:13:31.129Z,67.58
2018-02-13T20:15:58.690Z,67.85
2018-02-13T20:18:26.283Z,67.76
2018-02-13T20:20:54.114Z,68.12
2018-02-13T20:23:21.929Z,68.47
2018-02-13T20:25:49.758Z,68.68
2018-02-13T20:28:17.321Z,69.04
2018-02-13T20:30:45.053Z,69.13
2018-02-13T20:33:12.596Z,68.10
2018-02-13T20:35:40.410Z,68.20
2018-02-13T20:38:07.975Z,68.41
2018-02-13T20:40:35.701Z,67.89
2018-02-13T20:43:03.474Z,67.63
2018-02-13T20:45:31.294Z,67.48
2018-02-13T20:47:58.866Z,67.79
2018-02-13T20:50:26.480Z,67.96
2018-02-13T20:52:54.050Z,68.57
2018-02-13T20:55:21.866Z,68.42
2018-02-13T20:57:49.575Z,67.87
2018-02-13T21:00:17.161Z,67.98
2018-02-13T21:02:44.713Z,68.75
2018-02-13T21:05:12.287Z,69.44
2018-02-13T21:07:39.846Z,69.64
2018-02-13T21:10:07.413Z,69.94
2018-02-13T21:12:35.154Z,70.40
2018-02-13T21:15:02.766Z,70.80
2018-02-13T21:17:30.527Z,70.77
2018-02-13T21:19:58.246Z,70.71
2018-02-13T21:22:25.884Z,71.02
2018-02-13T21:24:53.683Z,69.83
2018-02-13T21:27:21.500Z,70.15
2018-02-13T21:29:49.063Z,70.15
2018-02-13T21:32:16.837Z,70.38
2018-02-13T21:34:44.566Z,69.96
2018-02-13T21:37:12.129Z,70.21
2018-02-13T21:39:39.891Z,70.28
2018-02-13T21:42:07.710Z,70.73
2018-02-13T21:44:35.451Z,70.30
2018-02-13T21:47:03.013Z,70.12
2018-02-13T21:49:30.573Z,69.78
2018-02-13T21:51:58.382Z,70.09
2018-02-13T21:54:26.201Z,70.59
2018-02-13T21:56:54.020Z,71.09
2018-02-13T21:59:21.575Z,71.14
2018-02-13T22:01:49.241Z,70.63
2018-02-13T22:04:16.798Z,70.66
2018-02-13T22:06:44.361Z,70.67
2018-02-13T22:09:11.950Z,70.93
2018-02-13T22:11:39.507Z,70.83
2018-02-13T22:14:07.081Z,71.36
2018-02-13T22:16:34.741Z,71.03
2018-02-13T22:19:02.346Z,71.36
2018-02-13T22:21:30.100Z,71.20
2018-02-13T22:23:57.931Z,71.07
2018-02-13T22:26:25.656Z,70.89
2018-02-13T22:28:53.373Z,70.97
2018-02-13T22:31:21.172Z,71.10
2018-02-13T22:33:48.733Z,71.59
2018-02-13T22:36:16.303Z,71.88
2018-02-13T22:38:43.878Z,71.70
2018-02-13T22:41:11.644Z,71.86
2018-02-13T22:43:39.254Z,71.75
2018-02-13T22:46:06.812Z,71.86
2018-02-13T22:48:34.410Z,71.71
2018-02-13T22:51:02.094Z,72.00
2018-02-13T22:53:29.693Z,71.96
2018-02-13T22:55:57.452Z,71.80
2018-02-13T22:58:25.046Z,71.82
2018-02-13T23:00:52.651Z,71.77
2018-02-13T23:03:20.212Z,72.00
2018-02-13T23:05:47.831Z,71.93
2018-02-13T23:08:15.390Z,71.78
2018-02-13T23:10:42.953Z,72.06
2018-02-13T23:13:10.521Z,72.19
2018-02-13T23:15:38.063Z,72.48
2018-02-13T23:18:05.629Z,72.32
2018-02-13T23:20:33.189Z,72.43
2018-02-13T23:23:00.817Z,72.10
2018-02-13T23:25:28.373Z,71.98
2018-02-13T23:27:56.184Z,72.22
2018-02-13T23:30:23.798Z,72.51
2018-02-13T23:32:51.358Z,72.54
2018-02-13T23:35:18.940Z,72.31
2018-02-13T23:37:46.499Z,72.20
2018-02-13T23:40:14.116Z,72.46
2018-02-13T23:42:41.892Z,72.37
2018-02-13T23:45:09.449Z,72.51
2018-02-13T23:47:37.227Z,72.40
2018-02-13T23:50:04.794Z,72.37
2018-02-13T23:52:32.358Z,72.32
2018-02-13T23:54:59.914Z,72.70
2018-02-13T23:57:27.498Z,73.07
2018-02-13T23:59:55.189Z,73.00
